sensor_id;sensor_type;location;lat;lon;timestamp;pressure;altitude;pressure_sealevel;temperature;humidity
6851;BME280;3464;42.728;23.296;2023-09-12T00:01:32;95417.97;;;25.14;40.45
6851;BME280;3464;42.728;23.296;2023-09-12T00:03:58;95419.02;;;24.72;41.23
6851;BME280;3464;42.728;23.296;2023-09-12T00:06:25;95420.63;;;24.93;40.81
6851;BME280;3464;42.728;23.296;2023-09-12T00:08:51;95421.98;;;24.91;40.92
6851;BME280;3464;42.728;23.296;2023-09-12T00:11:18;95413.41;;;25.01;40.67
6851;BME280;3464;42.728;23.296;2023-09-12T00:13:45;95412.78;;;25.05;40.62
6851;BME280;3464;42.728;23.296;2023-09-12T00:16:11;95423.19;;;24.94;40.78
6851;BME280;3464;42.728;23.296;2023-09-12T00:18:39;95416.01;;;25.00;40.67
6851;BME280;3464;42.728;23.296;2023-09-12T00:21:05;95423.83;;;24.89;40.80
6851;BME280;3464;42.728;23.296;2023-09-12T00:23:32;95424.93;;;24.84;40.99
6851;BME280;3464;42.728;23.296;2023-09-12T00:25:59;95424.50;;;24.84;41.06
6851;BME280;3464;42.728;23.296;2023-09-12T00:28:25;95430.53;;;24.83;41.10
6851;BME280;3464;42.728;23.296;2023-09-12T00:30:52;95432.38;;;24.80;41.10
6851;BME280;3464;42.728;23.296;2023-09-12T00:33:18;95431.31;;;24.65;41.16
6851;BME280;3464;42.728;23.296;2023-09-12T00:35:45;95436.37;;;24.77;40.96
6851;BME280;3464;42.728;23.296;2023-09-12T00:38:11;95425.34;;;24.65;41.29
6851;BME280;3464;42.728;23.296;2023-09-12T00:40:38;95438.69;;;24.74;41.22
6851;BME280;3464;42.728;23.296;2023-09-12T00:43:04;95435.37;;;24.80;41.10
6851;BME280;3464;42.728;23.296;2023-09-12T00:45:31;95432.88;;;24.79;41.13
6851;BME280;3464;42.728;23.296;2023-09-12T00:47:58;95435.70;;;24.73;41.15
6851;BME280;3464;42.728;23.296;2023-09-12T00:50:24;95436.33;;;24.58;41.57
6851;BME280;3464;42.728;23.296;2023-09-12T00:52:51;95442.47;;;24.65;41.60
6851;BME280;3464;42.728;23.296;2023-09-12T00:55:18;95436.33;;;24.48;41.92
6851;BME280;3464;42.728;23.296;2023-09-12T00:57:46;95443.21;;;24.87;41.22
6851;BME280;3464;42.728;23.296;2023-09-12T01:00:13;95444.52;;;24.77;41.33
6851;BME280;3464;42.728;23.296;2023-09-12T01:02:41;95447.30;;;24.73;41.48
6851;BME280;3464;42.728;23.296;2023-09-12T01:05:10;95450.16;;;24.76;41.37
6851;BME280;3464;42.728;23.296;2023-09-12T01:07:37;95448.88;;;24.76;41.31
6851;BME280;3464;42.728;23.296;2023-09-12T01:10:05;95451.63;;;24.72;41.43
6851;BME280;3464;42.728;23.296;2023-09-12T01:12:32;95455.02;;;24.53;41.61
6851;BME280;3464;42.728;23.296;2023-09-12T01:14:59;95453.19;;;24.25;42.29
6851;BME280;3464;42.728;23.296;2023-09-12T01:17:26;95457.31;;;24.29;42.27
6851;BME280;3464;42.728;23.296;2023-09-12T01:19:52;95455.46;;;24.42;42.06
6851;BME280;3464;42.728;23.296;2023-09-12T01:25:29;95458.52;;;24.31;42.09
6851;BME280;3464;42.728;23.296;2023-09-12T01:27:50;95461.27;;;24.37;42.09
6851;BME280;3464;42.728;23.296;2023-09-12T01:30:18;95458.66;;;24.27;42.26
6851;BME280;3464;42.728;23.296;2023-09-12T01:32:44;95456.33;;;24.22;42.30
6851;BME280;3464;42.728;23.296;2023-09-12T01:35:10;95453.27;;;24.13;42.51
6851;BME280;3464;42.728;23.296;2023-09-12T01:37:38;95451.53;;;24.14;42.44
6851;BME280;3464;42.728;23.296;2023-09-12T01:40:05;95450.77;;;24.11;42.48
6851;BME280;3464;42.728;23.296;2023-09-12T01:42:36;95450.87;;;24.09;42.33
6851;BME280;3464;42.728;23.296;2023-09-12T01:45:01;95457.55;;;24.03;42.24
6851;BME280;3464;42.728;23.296;2023-09-12T01:47:28;95459.48;;;23.98;42.23
6851;BME280;3464;42.728;23.296;2023-09-12T01:49:57;95460.85;;;23.95;42.32
6851;BME280;3464;42.728;23.296;2023-09-12T01:52:26;95458.66;;;23.96;42.28
6851;BME280;3464;42.728;23.296;2023-09-12T01:54:53;95458.77;;;24.04;42.10
6851;BME280;3464;42.728;23.296;2023-09-12T01:57:21;95460.76;;;23.65;42.76
6851;BME280;3464;42.728;23.296;2023-09-12T01:59:48;95465.16;;;23.83;42.43
6851;BME280;3464;42.728;23.296;2023-09-12T02:02:16;95465.83;;;23.88;42.22
6851;BME280;3464;42.728;23.296;2023-09-12T02:04:46;95467.56;;;23.66;42.46
6851;BME280;3464;42.728;23.296;2023-09-12T02:07:10;95465.80;;;23.67;42.28
6851;BME280;3464;42.728;23.296;2023-09-12T02:09:37;95468.97;;;23.62;42.30
6851;BME280;3464;42.728;23.296;2023-09-12T02:12:03;95471.66;;;23.59;42.34
6851;BME280;3464;42.728;23.296;2023-09-12T02:14:30;95463.56;;;23.59;42.34
6851;BME280;3464;42.728;23.296;2023-09-12T02:16:58;95468.10;;;23.63;42.42
6851;BME280;3464;42.728;23.296;2023-09-12T02:19:24;95463.67;;;23.56;42.40
6851;BME280;3464;42.728;23.296;2023-09-12T02:21:51;95461.60;;;23.54;42.67
6851;BME280;3464;42.728;23.296;2023-09-12T02:24:18;95464.51;;;23.46;42.64
6851;BME280;3464;42.728;23.296;2023-09-12T02:26:44;95470.58;;;23.55;42.70
6851;BME280;3464;42.728;23.296;2023-09-12T02:29:12;95474.95;;;23.52;42.78
6851;BME280;3464;42.728;23.296;2023-09-12T02:31:38;95463.67;;;23.56;42.98
6851;BME280;3464;42.728;23.296;2023-09-12T02:34:05;95468.08;;;23.53;42.85
6851;BME280;3464;42.728;23.296;2023-09-12T02:36:31;95470.33;;;23.50;42.92
6851;BME280;3464;42.728;23.296;2023-09-12T02:38:58;95469.06;;;23.49;43.02
6851;BME280;3464;42.728;23.296;2023-09-12T02:41:25;95470.02;;;23.47;43.23
6851;BME280;3464;42.728;23.296;2023-09-12T02:43:53;95467.47;;;23.58;43.11
6851;BME280;3464;42.728;23.296;2023-09-12T02:46:20;95474.42;;;22.74;44.12
6851;BME280;3464;42.728;23.296;2023-09-12T02:48:47;95477.39;;;22.37;45.08
6851;BME280;3464;42.728;23.296;2023-09-12T02:51:16;95476.09;;;22.25;45.24
6851;BME280;3464;42.728;23.296;2023-09-12T02:53:43;95470.56;;;22.24;45.35
6851;BME280;3464;42.728;23.296;2023-09-12T02:56:10;95472.55;;;22.29;45.17
6851;BME280;3464;42.728;23.296;2023-09-12T02:58:38;95476.78;;;22.30;45.30
6851;BME280;3464;42.728;23.296;2023-09-12T03:01:04;95470.91;;;22.26;45.35
6851;BME280;3464;42.728;23.296;2023-09-12T03:03:32;95476.95;;;22.11;45.72
6851;BME280;3464;42.728;23.296;2023-09-12T03:06:00;95479.27;;;22.07;46.01
6851;BME280;3464;42.728;23.296;2023-09-12T03:08:26;95474.77;;;22.13;45.88
6851;BME280;3464;42.728;23.296;2023-09-12T03:10:56;95473.66;;;22.21;45.61
6851;BME280;3464;42.728;23.296;2023-09-12T03:13:24;95477.65;;;22.17;45.67
6851;BME280;3464;42.728;23.296;2023-09-12T03:15:51;95474.67;;;22.16;45.74
6851;BME280;3464;42.728;23.296;2023-09-12T03:18:18;95475.66;;;22.63;45.40
6851;BME280;3464;42.728;23.296;2023-09-12T03:20:45;95477.44;;;22.36;45.30
6851;BME280;3464;42.728;23.296;2023-09-12T03:23:12;95475.45;;;22.69;45.37
6851;BME280;3464;42.728;23.296;2023-09-12T03:25:39;95485.73;;;22.05;45.98
6851;BME280;3464;42.728;23.296;2023-09-12T03:28:05;95484.31;;;21.96;46.34
6851;BME280;3464;42.728;23.296;2023-09-12T03:30:33;95484.41;;;21.93;46.34
6851;BME280;3464;42.728;23.296;2023-09-12T03:33:00;95484.92;;;22.16;45.82
6851;BME280;3464;42.728;23.296;2023-09-12T03:35:27;95478.94;;;22.16;45.77
6851;BME280;3464;42.728;23.296;2023-09-12T03:37:53;95485.25;;;22.19;45.68
6851;BME280;3464;42.728;23.296;2023-09-12T03:40:19;95485.02;;;22.14;45.79
6851;BME280;3464;42.728;23.296;2023-09-12T03:42:46;95489.11;;;22.06;45.90
6851;BME280;3464;42.728;23.296;2023-09-12T03:45:13;95486.83;;;21.97;46.12
6851;BME280;3464;42.728;23.296;2023-09-12T03:47:39;95487.35;;;22.08;45.91
6851;BME280;3464;42.728;23.296;2023-09-12T03:50:06;95488.81;;;21.89;46.37
6851;BME280;3464;42.728;23.296;2023-09-12T03:52:33;95486.83;;;21.97;46.15
6851;BME280;3464;42.728;23.296;2023-09-12T03:54:59;95492.62;;;22.03;45.94
6851;BME280;3464;42.728;23.296;2023-09-12T03:57:27;95487.36;;;21.81;46.61
6851;BME280;3464;42.728;23.296;2023-09-12T03:59:54;95492.95;;;22.06;45.97
6851;BME280;3464;42.728;23.296;2023-09-12T04:02:21;95484.84;;;22.57;45.47
6851;BME280;3464;42.728;23.296;2023-09-12T04:04:48;95483.58;;;23.05;44.45
6851;BME280;3464;42.728;23.296;2023-09-12T04:07:16;95483.98;;;23.29;43.90
6851;BME280;3464;42.728;23.296;2023-09-12T04:09:59;95480.80;;;23.56;43.26
6851;BME280;3464;42.728;23.296;2023-09-12T04:13:05;95485.89;;;23.79;42.85
6851;BME280;3464;42.728;23.296;2023-09-12T04:15:42;95487.17;;;23.79;42.74
6851;BME280;3464;42.728;23.296;2023-09-12T04:18:14;95489.32;;;24.02;42.62
6851;BME280;3464;42.728;23.296;2023-09-12T04:20:43;95489.94;;;24.07;42.41
6851;BME280;3464;42.728;23.296;2023-09-12T04:23:25;95484.67;;;24.00;42.80
6851;BME280;3464;42.728;23.296;2023-09-12T04:25:54;95488.41;;;25.61;40.28
6851;BME280;3464;42.728;23.296;2023-09-12T04:28:28;95481.61;;;26.66;38.23
6851;BME280;3464;42.728;23.296;2023-09-12T04:37:40;95484.95;;;29.91;34.14
6851;BME280;3464;42.728;23.296;2023-09-12T04:40:14;95463.80;;;30.68;32.11
6851;BME280;3464;42.728;23.296;2023-09-12T04:42:56;95485.36;;;31.64;30.92
6851;BME280;3464;42.728;23.296;2023-09-12T04:45:25;95488.55;;;31.81;30.72
6851;BME280;3464;42.728;23.296;2023-09-12T04:48:07;95491.05;;;33.11;29.13
6851;BME280;3464;42.728;23.296;2023-09-12T04:50:46;95493.16;;;32.95;28.95
6851;BME280;3464;42.728;23.296;2023-09-12T04:53:41;95497.67;;;33.93;28.33
6851;BME280;3464;42.728;23.296;2023-09-12T04:56:09;95493.32;;;35.09;27.09
6851;BME280;3464;42.728;23.296;2023-09-12T04:58:41;95494.36;;;35.92;26.02
6851;BME280;3464;42.728;23.296;2023-09-12T05:01:11;95491.11;;;35.90;25.61
6851;BME280;3464;42.728;23.296;2023-09-12T05:03:42;95496.66;;;36.01;25.52
6851;BME280;3464;42.728;23.296;2023-09-12T05:06:11;95500.73;;;36.29;25.11
6851;BME280;3464;42.728;23.296;2023-09-12T05:08:43;95497.28;;;36.04;25.43
6851;BME280;3464;42.728;23.296;2023-09-12T05:11:14;95497.41;;;35.93;25.13
6851;BME280;3464;42.728;23.296;2023-09-12T05:13:47;95498.61;;;38.10;23.70
6851;BME280;3464;42.728;23.296;2023-09-12T05:16:21;95500.70;;;38.07;23.61
6851;BME280;3464;42.728;23.296;2023-09-12T05:19:10;95498.14;;;38.86;22.76
6851;BME280;3464;42.728;23.296;2023-09-12T05:21:52;95498.66;;;39.83;22.12
6851;BME280;3464;42.728;23.296;2023-09-12T05:24:29;95496.05;;;39.79;21.98
6851;BME280;3464;42.728;23.296;2023-09-12T05:27:02;95497.88;;;39.14;22.17
6851;BME280;3464;42.728;23.296;2023-09-12T05:29:35;95495.48;;;38.47;22.86
6851;BME280;3464;42.728;23.296;2023-09-12T05:32:12;95499.87;;;40.18;21.45
6851;BME280;3464;42.728;23.296;2023-09-12T05:34:42;95499.20;;;41.69;20.24
6851;BME280;3464;42.728;23.296;2023-09-12T05:37:18;95500.51;;;41.06;20.52
6851;BME280;3464;42.728;23.296;2023-09-12T05:39:48;95499.13;;;41.66;20.42
6851;BME280;3464;42.728;23.296;2023-09-12T05:42:15;95504.11;;;41.80;20.01
6851;BME280;3464;42.728;23.296;2023-09-12T05:44:46;95481.17;;;42.72;19.30
6851;BME280;3464;42.728;23.296;2023-09-12T05:47:15;95498.09;;;43.12;19.06
6851;BME280;3464;42.728;23.296;2023-09-12T05:49:47;95500.39;;;43.04;18.85
6851;BME280;3464;42.728;23.296;2023-09-12T05:52:17;95504.50;;;42.35;19.16
6851;BME280;3464;42.728;23.296;2023-09-12T05:54:53;95504.33;;;41.98;19.51
6851;BME280;3464;42.728;23.296;2023-09-12T06:03:30;95501.11;;;43.09;18.76
6851;BME280;3464;42.728;23.296;2023-09-12T06:08:58;95499.31;;;42.30;19.20
6851;BME280;3464;42.728;23.296;2023-09-12T06:11:24;95503.47;;;41.35;20.03
6851;BME280;3464;42.728;23.296;2023-09-12T06:17:22;95502.44;;;41.68;19.89
6851;BME280;3464;42.728;23.296;2023-09-12T06:19:56;95506.24;;;43.62;18.51
6851;BME280;3464;42.728;23.296;2023-09-12T06:22:23;95509.48;;;42.94;19.25
6851;BME280;3464;42.728;23.296;2023-09-12T06:24:54;95514.80;;;45.01;17.73
6851;BME280;3464;42.728;23.296;2023-09-12T06:27:23;95514.09;;;43.89;18.27
6851;BME280;3464;42.728;23.296;2023-09-12T06:30:03;95519.57;;;43.54;18.48
6851;BME280;3464;42.728;23.296;2023-09-12T06:32:33;95524.86;;;41.84;19.29
6851;BME280;3464;42.728;23.296;2023-09-12T06:35:10;95522.16;;;41.17;20.11
6851;BME280;3464;42.728;23.296;2023-09-12T06:37:38;95520.84;;;42.04;19.30
6851;BME280;3464;42.728;23.296;2023-09-12T06:40:11;95526.45;;;43.34;18.28
6851;BME280;3464;42.728;23.296;2023-09-12T06:42:39;95522.80;;;45.15;17.43
6851;BME280;3464;42.728;23.296;2023-09-12T06:45:15;95518.54;;;44.25;17.73
6851;BME280;3464;42.728;23.296;2023-09-12T06:47:56;95514.21;;;44.64;17.64
6851;BME280;3464;42.728;23.296;2023-09-12T06:50:23;95524.92;;;43.32;18.05
6851;BME280;3464;42.728;23.296;2023-09-12T06:52:53;95516.41;;;44.24;17.76
6851;BME280;3464;42.728;23.296;2023-09-12T06:55:19;95519.97;;;45.33;17.16
6851;BME280;3464;42.728;23.296;2023-09-12T06:57:49;95524.03;;;44.09;17.62
6851;BME280;3464;42.728;23.296;2023-09-12T07:00:20;95520.94;;;44.70;17.39
6851;BME280;3464;42.728;23.296;2023-09-12T07:02:50;95521.97;;;45.01;17.13
6851;BME280;3464;42.728;23.296;2023-09-12T07:05:18;95520.28;;;44.11;17.52
6851;BME280;3464;42.728;23.296;2023-09-12T07:14:09;95530.76;;;35.04;24.73
6851;BME280;3464;42.728;23.296;2023-09-12T07:16:58;95527.50;;;34.91;25.11
6851;BME280;3464;42.728;23.296;2023-09-12T07:19:34;95530.08;;;34.81;25.08
6851;BME280;3464;42.728;23.296;2023-09-12T07:22:18;95530.24;;;34.26;25.50
6851;BME280;3464;42.728;23.296;2023-09-12T07:25:00;95535.28;;;33.12;26.60
6851;BME280;3464;42.728;23.296;2023-09-12T07:27:43;95535.96;;;32.98;26.96
6851;BME280;3464;42.728;23.296;2023-09-12T07:30:12;95533.19;;;32.59;27.39
6851;BME280;3464;42.728;23.296;2023-09-12T07:32:44;95533.97;;;33.41;26.90
6851;BME280;3464;42.728;23.296;2023-09-12T07:35:16;95529.27;;;34.65;26.04
6851;BME280;3464;42.728;23.296;2023-09-12T07:38:04;95532.03;;;33.71;26.42
6851;BME280;3464;42.728;23.296;2023-09-12T07:43:27;95529.94;;;33.64;26.34
6851;BME280;3464;42.728;23.296;2023-09-12T07:46:10;95526.58;;;33.74;26.30
6851;BME280;3464;42.728;23.296;2023-09-12T07:48:58;95526.26;;;33.78;26.27
6851;BME280;3464;42.728;23.296;2023-09-12T07:51:48;95523.48;;;32.84;26.70
6851;BME280;3464;42.728;23.296;2023-09-12T07:57:26;95519.64;;;32.54;26.67
6851;BME280;3464;42.728;23.296;2023-09-12T08:00:26;95523.47;;;31.96;27.22
6851;BME280;3464;42.728;23.296;2023-09-12T08:06:15;95515.42;;;32.05;26.92
6851;BME280;3464;42.728;23.296;2023-09-12T08:12:09;95514.41;;;32.19;27.14
6851;BME280;3464;42.728;23.296;2023-09-12T08:14:47;95521.45;;;32.59;26.55
6851;BME280;3464;42.728;23.296;2023-09-12T08:17:39;95517.63;;;31.93;27.32
6851;BME280;3464;42.728;23.296;2023-09-12T08:23:25;95519.63;;;32.49;26.95
6851;BME280;3464;42.728;23.296;2023-09-12T08:26:18;95518.41;;;32.12;27.79
6851;BME280;3464;42.728;23.296;2023-09-12T08:29:21;95511.50;;;32.47;27.25
6851;BME280;3464;42.728;23.296;2023-09-12T08:32:15;95504.35;;;32.91;26.73
6851;BME280;3464;42.728;23.296;2023-09-12T08:37:56;95509.56;;;33.30;26.52
6851;BME280;3464;42.728;23.296;2023-09-12T08:49:52;95496.14;;;33.18;26.27
6851;BME280;3464;42.728;23.296;2023-09-12T08:52:53;95492.57;;;32.73;26.51
6851;BME280;3464;42.728;23.296;2023-09-12T08:55:35;95496.92;;;32.44;26.83
6851;BME280;3464;42.728;23.296;2023-09-12T08:58:05;95500.37;;;32.97;26.43
6851;BME280;3464;42.728;23.296;2023-09-12T09:00:32;95496.17;;;32.66;26.36
6851;BME280;3464;42.728;23.296;2023-09-12T09:03:02;95501.25;;;32.15;27.08
6851;BME280;3464;42.728;23.296;2023-09-12T09:05:38;95494.68;;;32.34;27.18
6851;BME280;3464;42.728;23.296;2023-09-12T09:08:10;95499.72;;;33.00;26.33
6851;BME280;3464;42.728;23.296;2023-09-12T09:11:02;95491.88;;;32.71;26.23
6851;BME280;3464;42.728;23.296;2023-09-12T09:13:40;95492.69;;;33.62;25.39
6851;BME280;3464;42.728;23.296;2023-09-12T09:16:14;95490.18;;;33.33;25.51
6851;BME280;3464;42.728;23.296;2023-09-12T09:18:59;95483.75;;;33.76;25.10
6851;BME280;3464;42.728;23.296;2023-09-12T09:21:54;95483.48;;;33.41;25.50
6851;BME280;3464;42.728;23.296;2023-09-12T09:24:30;95478.23;;;33.19;25.57
6851;BME280;3464;42.728;23.296;2023-09-12T09:27:11;95478.83;;;33.34;25.52
6851;BME280;3464;42.728;23.296;2023-09-12T09:29:48;95470.30;;;33.76;25.02
6851;BME280;3464;42.728;23.296;2023-09-12T09:32:19;95468.34;;;33.95;24.81
6851;BME280;3464;42.728;23.296;2023-09-12T09:35:16;95464.56;;;33.38;25.25
6851;BME280;3464;42.728;23.296;2023-09-12T09:37:55;95463.04;;;33.02;25.78
6851;BME280;3464;42.728;23.296;2023-09-12T09:40:24;95466.95;;;32.96;26.28
6851;BME280;3464;42.728;23.296;2023-09-12T09:42:55;95465.06;;;33.20;25.55
6851;BME280;3464;42.728;23.296;2023-09-12T09:45:22;95463.05;;;33.74;25.75
6851;BME280;3464;42.728;23.296;2023-09-12T09:47:49;95460.20;;;33.88;25.53
6851;BME280;3464;42.728;23.296;2023-09-12T09:50:16;95454.67;;;34.18;25.34
6851;BME280;3464;42.728;23.296;2023-09-12T09:52:44;95454.12;;;34.35;24.72
6851;BME280;3464;42.728;23.296;2023-09-12T09:55:13;95450.15;;;33.61;25.22
6851;BME280;3464;42.728;23.296;2023-09-12T09:57:40;95453.41;;;33.64;25.04
6851;BME280;3464;42.728;23.296;2023-09-12T10:00:07;95449.41;;;33.76;25.13
6851;BME280;3464;42.728;23.296;2023-09-12T10:02:35;95445.23;;;33.52;25.60
6851;BME280;3464;42.728;23.296;2023-09-12T10:05:00;95441.68;;;34.12;24.77
6851;BME280;3464;42.728;23.296;2023-09-12T10:07:28;95440.15;;;34.04;24.82
6851;BME280;3464;42.728;23.296;2023-09-12T10:09:55;95439.14;;;34.27;24.84
6851;BME280;3464;42.728;23.296;2023-09-12T10:12:22;95435.40;;;34.46;24.51
6851;BME280;3464;42.728;23.296;2023-09-12T10:14:48;95433.41;;;34.33;24.57
6851;BME280;3464;42.728;23.296;2023-09-12T10:17:15;95430.47;;;34.53;24.50
6851;BME280;3464;42.728;23.296;2023-09-12T10:19:43;95422.34;;;34.71;24.68
6851;BME280;3464;42.728;23.296;2023-09-12T10:22:17;95427.23;;;34.70;24.63
6851;BME280;3464;42.728;23.296;2023-09-12T10:24:39;95421.94;;;34.40;25.43
6851;BME280;3464;42.728;23.296;2023-09-12T10:27:07;95419.28;;;34.35;25.78
6851;BME280;3464;42.728;23.296;2023-09-12T10:29:34;95416.05;;;33.90;25.22
6851;BME280;3464;42.728;23.296;2023-09-12T10:32:02;95392.68;;;33.99;27.84
6851;BME280;3464;42.728;23.296;2023-09-12T10:34:30;95410.48;;;34.31;24.85
6851;BME280;3464;42.728;23.296;2023-09-12T10:36:55;95416.73;;;34.55;24.67
6851;BME280;3464;42.728;23.296;2023-09-12T10:39:21;95414.94;;;34.30;24.70
6851;BME280;3464;42.728;23.296;2023-09-12T10:41:49;95408.78;;;34.25;24.88
6851;BME280;3464;42.728;23.296;2023-09-12T10:44:16;95409.20;;;34.41;23.91
6851;BME280;3464;42.728;23.296;2023-09-12T10:46:43;95401.48;;;34.18;24.37
6851;BME280;3464;42.728;23.296;2023-09-12T10:49:11;95404.02;;;34.25;25.09
6851;BME280;3464;42.728;23.296;2023-09-12T10:51:39;95398.28;;;34.42;24.61
6851;BME280;3464;42.728;23.296;2023-09-12T10:54:05;95396.31;;;34.86;23.91
6851;BME280;3464;42.728;23.296;2023-09-12T10:56:32;95391.28;;;34.80;24.04
6851;BME280;3464;42.728;23.296;2023-09-12T10:59:08;95396.14;;;34.93;24.29
6851;BME280;3464;42.728;23.296;2023-09-12T11:01:37;95390.33;;;34.58;24.53
6851;BME280;3464;42.728;23.296;2023-09-12T11:06:59;95379.69;;;34.65;24.25
6851;BME280;3464;42.728;23.296;2023-09-12T11:09:27;95381.80;;;34.51;25.21
6851;BME280;3464;42.728;23.296;2023-09-12T11:11:57;95377.56;;;34.75;24.27
6851;BME280;3464;42.728;23.296;2023-09-12T11:14:25;95372.30;;;34.70;24.34
6851;BME280;3464;42.728;23.296;2023-09-12T11:17:22;95369.81;;;35.64;23.52
6851;BME280;3464;42.728;23.296;2023-09-12T11:19:50;95374.50;;;35.06;24.10
6851;BME280;3464;42.728;23.296;2023-09-12T11:22:31;95372.01;;;35.24;24.23
6851;BME280;3464;42.728;23.296;2023-09-12T11:25:02;95376.39;;;34.94;24.02
6851;BME280;3464;42.728;23.296;2023-09-12T11:27:43;95372.94;;;35.43;23.66
6851;BME280;3464;42.728;23.296;2023-09-12T11:30:04;95370.98;;;35.36;23.69
6851;BME280;3464;42.728;23.296;2023-09-12T11:32:31;95367.44;;;35.12;23.81
6851;BME280;3464;42.728;23.296;2023-09-12T11:34:59;95359.03;;;35.13;23.81
6851;BME280;3464;42.728;23.296;2023-09-12T11:37:36;95358.38;;;35.60;23.68
6851;BME280;3464;42.728;23.296;2023-09-12T11:40:23;95359.13;;;35.12;23.88
6851;BME280;3464;42.728;23.296;2023-09-12T11:42:50;95356.33;;;35.29;23.73
6851;BME280;3464;42.728;23.296;2023-09-12T11:45:20;95351.27;;;35.61;23.23
6851;BME280;3464;42.728;23.296;2023-09-12T11:53:41;95338.91;;;35.87;22.90
6851;BME280;3464;42.728;23.296;2023-09-12T11:56:10;95336.27;;;35.28;22.96
6851;BME280;3464;42.728;23.296;2023-09-12T11:58:37;95338.49;;;35.38;22.47
6851;BME280;3464;42.728;23.296;2023-09-12T12:01:03;95341.41;;;35.59;22.27
6851;BME280;3464;42.728;23.296;2023-09-12T12:03:36;95331.58;;;35.76;22.11
6851;BME280;3464;42.728;23.296;2023-09-12T12:06:03;95334.17;;;36.10;21.84
6851;BME280;3464;42.728;23.296;2023-09-12T12:08:30;95329.53;;;35.85;22.15
6851;BME280;3464;42.728;23.296;2023-09-12T12:10:56;95332.72;;;35.64;22.04
6851;BME280;3464;42.728;23.296;2023-09-12T12:13:32;95331.45;;;35.39;21.86
6851;BME280;3464;42.728;23.296;2023-09-12T12:15:58;95331.59;;;35.42;22.25
6851;BME280;3464;42.728;23.296;2023-09-12T12:18:25;95325.42;;;35.53;21.69
6851;BME280;3464;42.728;23.296;2023-09-12T12:20:53;95328.55;;;35.76;21.42
6851;BME280;3464;42.728;23.296;2023-09-12T12:23:22;95331.81;;;35.98;21.42
6851;BME280;3464;42.728;23.296;2023-09-12T12:25:52;95321.70;;;35.60;21.52
6851;BME280;3464;42.728;23.296;2023-09-12T12:28:20;95325.41;;;35.62;21.21
6851;BME280;3464;42.728;23.296;2023-09-12T12:31:05;95322.91;;;35.37;21.15
6851;BME280;3464;42.728;23.296;2023-09-12T12:33:35;95311.24;;;35.79;20.44
6851;BME280;3464;42.728;23.296;2023-09-12T12:36:04;95312.28;;;36.11;20.42
6851;BME280;3464;42.728;23.296;2023-09-12T12:38:35;95312.41;;;35.66;20.72
6851;BME280;3464;42.728;23.296;2023-09-12T12:41:02;95312.79;;;35.86;20.40
6851;BME280;3464;42.728;23.296;2023-09-12T12:43:29;95314.77;;;35.69;20.73
6851;BME280;3464;42.728;23.296;2023-09-12T12:45:58;95310.06;;;35.78;20.94
6851;BME280;3464;42.728;23.296;2023-09-12T12:48:33;95316.30;;;36.05;20.93
6851;BME280;3464;42.728;23.296;2023-09-12T12:51:01;95313.67;;;36.00;21.04
6851;BME280;3464;42.728;23.296;2023-09-12T12:53:37;95306.43;;;36.27;21.01
6851;BME280;3464;42.728;23.296;2023-09-12T12:56:03;95305.59;;;36.17;21.18
6851;BME280;3464;42.728;23.296;2023-09-12T12:58:31;95301.52;;;35.66;21.53
6851;BME280;3464;42.728;23.296;2023-09-12T13:00:58;95299.77;;;35.02;22.19
6851;BME280;3464;42.728;23.296;2023-09-12T13:03:25;95295.92;;;35.56;21.61
6851;BME280;3464;42.728;23.296;2023-09-12T13:05:53;95302.14;;;35.69;21.77
6851;BME280;3464;42.728;23.296;2023-09-12T13:08:19;95298.28;;;36.06;21.32
6851;BME280;3464;42.728;23.296;2023-09-12T13:10:46;95295.13;;;36.07;21.36
6851;BME280;3464;42.728;23.296;2023-09-12T13:13:13;95292.29;;;36.10;21.45
6851;BME280;3464;42.728;23.296;2023-09-12T13:15:41;95293.80;;;36.26;21.33
6851;BME280;3464;42.728;23.296;2023-09-12T13:18:08;95292.84;;;35.99;21.50
6851;BME280;3464;42.728;23.296;2023-09-12T13:20:36;95282.50;;;36.49;21.18
6851;BME280;3464;42.728;23.296;2023-09-12T13:23:03;95287.27;;;36.03;21.40
6851;BME280;3464;42.728;23.296;2023-09-12T13:25:30;95286.02;;;36.16;21.30
6851;BME280;3464;42.728;23.296;2023-09-12T13:28:02;95289.53;;;36.21;21.24
6851;BME280;3464;42.728;23.296;2023-09-12T13:30:33;95282.75;;;36.23;21.50
6851;BME280;3464;42.728;23.296;2023-09-12T13:33:06;95281.98;;;36.59;21.10
6851;BME280;3464;42.728;23.296;2023-09-12T13:35:46;95278.37;;;36.65;20.82
6851;BME280;3464;42.728;23.296;2023-09-12T13:38:20;95272.17;;;37.16;20.51
6851;BME280;3464;42.728;23.296;2023-09-12T13:40:55;95274.02;;;36.46;21.00
6851;BME280;3464;42.728;23.296;2023-09-12T13:43:24;95273.13;;;36.74;20.95
6851;BME280;3464;42.728;23.296;2023-09-12T13:45:51;95269.83;;;37.58;20.18
6851;BME280;3464;42.728;23.296;2023-09-12T13:48:17;95271.29;;;37.47;20.23
6851;BME280;3464;42.728;23.296;2023-09-12T13:50:46;95273.89;;;36.89;20.83
6851;BME280;3464;42.728;23.296;2023-09-12T13:53:13;95270.09;;;36.74;20.72
6851;BME280;3464;42.728;23.296;2023-09-12T13:55:41;95267.44;;;36.23;21.07
6851;BME280;3464;42.728;23.296;2023-09-12T13:58:09;95273.78;;;35.35;21.81
6851;BME280;3464;42.728;23.296;2023-09-12T14:00:37;95270.01;;;36.05;21.45
6851;BME280;3464;42.728;23.296;2023-09-12T14:03:06;95266.70;;;35.74;21.54
6851;BME280;3464;42.728;23.296;2023-09-12T14:05:35;95264.36;;;35.57;21.72
6851;BME280;3464;42.728;23.296;2023-09-12T14:08:02;95266.88;;;35.82;21.33
6851;BME280;3464;42.728;23.296;2023-09-12T14:10:29;95271.39;;;35.66;21.59
6851;BME280;3464;42.728;23.296;2023-09-12T14:12:55;95266.99;;;35.90;21.46
6851;BME280;3464;42.728;23.296;2023-09-12T14:15:22;95263.96;;;36.04;21.56
6851;BME280;3464;42.728;23.296;2023-09-12T14:17:49;95262.05;;;36.34;21.34
6851;BME280;3464;42.728;23.296;2023-09-12T14:20:15;95266.60;;;36.18;21.57
6851;BME280;3464;42.728;23.296;2023-09-12T14:44:40;95259.38;;;36.30;21.11
6851;BME280;3464;42.728;23.296;2023-09-12T14:47:07;95254.23;;;36.06;20.98
6851;BME280;3464;42.728;23.296;2023-09-12T14:49:33;95255.64;;;36.23;21.09
6851;BME280;3464;42.728;23.296;2023-09-12T14:52:00;95255.67;;;36.28;21.11
6851;BME280;3464;42.728;23.296;2023-09-12T14:54:26;95250.33;;;36.38;21.04
6851;BME280;3464;42.728;23.296;2023-09-12T14:56:53;95257.88;;;36.28;20.85